Time;durP1;ratioP1;P1;durP2;ratioP2;P2;SDS_P1;SDS_P2;PMS_P1;PMS_P2;Temp;Humidity;BMP_temperature;BMP_pressure;BME280_temperature;BME280_humidity;BME280_pressure;Samples;Min_cycle;Max_cycle;Signal;HPM_P1;HPM_P2
2023/06/21 00:01:34;;;;;;;9.48;6.22;;;;;20.20;94127.00;;;;7428300;19;20167;-92
2023/06/21 00:04:09;;;;;;;9.45;6.82;;;;;20.20;94119.00;;;;7428554;19;20129;-91
2023/06/21 00:06:54;;;;;;;7.10;5.97;;;;;20.30;94130.00;;;;7425492;19;20139;-92
2023/06/21 00:09:22;;;;;;;7.15;6.00;;;;;20.40;94124.00;;;;7411149;19;20180;-91
2023/06/21 00:11:58;;;;;;;8.95;6.05;;;;;20.30;94123.00;;;;7412175;19;20141;-92
2023/06/21 00:14:29;;;;;;;7.63;6.38;;;;;20.30;94111.00;;;;7408375;19;20137;-92
2023/06/21 00:17:04;;;;;;;7.95;5.85;;;;;20.40;94121.00;;;;7410033;19;20136;-92
2023/06/21 00:19:31;;;;;;;6.75;5.50;;;;;20.30;94128.00;;;;7406924;19;20155;-91
2023/06/21 00:22:06;;;;;;;8.48;5.88;;;;;20.30;94123.00;;;;7409843;19;20615;-92
2023/06/21 00:24:33;;;;;;;6.55;5.80;;;;;20.10;94126.00;;;;7408967;19;20140;-92
2023/06/21 00:27:01;;;;;;;9.45;5.90;;;;;20.10;94134.00;;;;7423665;19;20137;-91
2023/06/21 00:29:35;;;;;;;6.57;5.40;;;;;20.00;94142.00;;;;7428048;19;20143;-92
2023/06/21 00:32:03;;;;;;;10.80;6.28;;;;;20.00;94137.00;;;;7425852;19;20151;-91
2023/06/21 00:34:38;;;;;;;7.47;5.72;;;;;19.90;94153.00;;;;7423307;19;20136;-92
2023/06/21 00:37:06;;;;;;;7.25;5.82;;;;;19.80;94156.00;;;;7410997;19;20653;-92
2023/06/21 00:39:42;;;;;;;10.02;6.10;;;;;19.50;94150.00;;;;7409254;19;20149;-91
2023/06/21 00:42:13;;;;;;;10.05;5.72;;;;;19.50;94154.00;;;;7411481;19;20149;-92
2023/06/21 00:44:46;;;;;;;9.63;6.57;;;;;19.50;94167.00;;;;7411000;19;20178;-92
2023/06/21 00:47:18;;;;;;;10.40;6.25;;;;;19.40;94159.00;;;;7409576;19;20148;-92
2023/06/21 00:49:53;;;;;;;9.60;6.13;;;;;19.20;94164.00;;;;7408127;19;20527;-91
2023/06/21 00:52:28;;;;;;;7.68;5.95;;;;;19.10;94164.00;;;;7408720;19;20144;-94
2023/06/21 00:55:03;;;;;;;8.27;6.18;;;;;19.20;94170.00;;;;7409521;19;20159;-91
2023/06/21 00:57:33;;;;;;;10.40;5.85;;;;;19.20;94167.00;;;;7406874;19;20142;-93
2023/06/21 01:00:13;;;;;;;9.20;6.20;;;;;19.10;94172.00;;;;7408849;19;20144;-92
2023/06/21 01:02:43;;;;;;;6.95;5.65;;;;;19.10;94181.00;;;;7415509;19;20187;-94
2023/06/21 01:05:34;;;;;;;6.43;5.82;;;;;19.10;94171.00;;;;7406446;19;20176;-93
2023/06/21 01:08:21;;;;;;;9.70;6.07;;;;;19.10;94167.00;;;;7407388;19;20149;-93
2023/06/21 01:11:06;;;;;;;9.23;6.60;;;;;19.00;94163.00;;;;7408116;19;20605;-93
2023/06/21 01:14:08;;;;;;;10.88;7.10;;;;;18.80;94169.00;;;;7408304;19;20137;-93
2023/06/21 01:16:48;;;;;;;9.45;5.82;;;18.30;99.90;18.60;94185.00;;;;7408310;19;20584;-93
2023/06/21 01:19:33;;;;;;;9.27;6.20;;;18.20;99.90;18.40;94183.00;;;;7407893;19;20132;-92
2023/06/21 01:22:20;;;;;;;9.68;6.43;;;17.90;99.90;18.40;94199.00;;;;7406619;19;20145;-93
2023/06/21 01:25:42;;;;;;;9.80;6.07;;;17.70;99.90;18.30;94176.00;;;;7405945;19;20170;-93
2023/06/21 01:29:00;;;;;;;7.07;6.00;;;17.50;99.90;18.20;94147.00;;;;7405340;19;20208;-93
2023/06/21 01:31:38;;;;;;;9.10;6.57;;;17.30;99.90;18.10;94145.00;;;;7405887;19;20133;-93
2023/06/21 01:34:14;;;;;;;7.15;6.45;;;17.20;1.00;18.00;94139.00;;;;7406375;19;20170;-93
2023/06/21 01:36:42;;;;;;;8.25;5.88;;;17.10;1.00;18.10;94146.00;;;;7404584;19;20619;-93
2023/06/21 01:39:15;;;;;;;7.72;6.40;;;17.10;1.00;18.10;94169.00;;;;7404509;19;20170;-92
2023/06/21 01:41:49;;;;;;;7.53;6.10;;;17.10;1.00;18.00;94205.00;;;;7406713;19;20140;-93
2023/06/21 01:44:24;;;;;;;8.38;6.57;;;17.00;1.00;17.90;94179.00;;;;7404481;19;20171;-93
2023/06/21 01:46:54;;;;;;;8.95;6.07;;;16.90;1.00;17.90;94161.00;;;;7402532;19;20137;-92
2023/06/21 01:49:30;;;;;;;8.45;6.05;;;17.00;1.00;17.90;94152.00;;;;7406422;19;20216;-92
2023/06/21 01:52:07;;;;;;;10.40;6.63;;;16.90;1.00;17.80;94171.00;;;;7403503;19;20132;-93
2023/06/21 01:54:42;;;;;;;6.60;6.00;;;16.90;1.00;17.90;94181.00;;;;7403780;19;20155;-93
2023/06/21 01:57:19;;;;;;;8.15;6.18;;;16.90;1.00;17.80;94168.00;;;;7405586;19;20136;-92
2023/06/21 01:59:54;;;;;;;11.20;6.57;;;16.80;1.00;17.70;94183.00;;;;7404429;19;20149;-92
2023/06/21 02:02:23;;;;;;;11.27;6.03;;;16.70;1.00;17.50;94171.00;;;;7405404;19;20184;-93
2023/06/21 02:05:11;;;;;;;6.97;5.65;;;16.70;1.00;17.50;94185.00;;;;7405334;19;20221;-92
2023/06/21 02:07:48;;;;;;;7.25;6.45;;;16.50;1.00;17.40;94198.00;;;;7406640;19;20137;-92
2023/06/21 02:10:25;;;;;;;6.88;5.75;;;16.50;1.00;17.40;94192.00;;;;7403735;19;20258;-92
2023/06/21 02:12:53;;;;;;;8.15;6.72;;;16.40;17.50;17.40;94224.00;;;;7402762;19;20147;-93
2023/06/21 02:15:26;;;;;;;8.80;6.07;;;16.40;53.70;17.50;94164.00;;;;7405977;19;20493;-92
2023/06/21 02:18:01;;;;;;;9.48;6.97;;;16.40;99.90;17.60;94128.00;;;;7402901;19;20153;-92
2023/06/21 02:20:34;;;;;;;8.52;6.22;;;16.50;99.90;17.50;94163.00;;;;7404073;19;20158;-92
2023/06/21 02:23:09;;;;;;;9.88;6.38;;;16.50;82.80;17.70;94204.00;;;;7405254;19;20600;-93
2023/06/21 02:25:43;;;;;;;9.95;5.82;;;16.60;59.30;17.70;94183.00;;;;7403602;19;20166;-92
2023/06/21 02:28:17;;;;;;;10.13;7.07;;;16.70;38.90;18.00;94233.00;;;;7405168;19;20141;-92
2023/06/21 02:30:51;;;;;;;9.95;6.18;;;16.80;1.00;18.10;94218.00;;;;7405627;19;20137;-93
2023/06/21 02:33:18;;;;;;;8.25;6.68;;;16.90;1.00;18.20;94183.00;;;;7406197;19;20133;-92
2023/06/21 02:35:52;;;;;;;6.28;5.60;;;17.00;1.00;18.30;94186.00;;;;7403987;19;20149;-92
2023/06/21 02:38:19;;;;;;;7.35;5.78;;;17.10;1.00;18.40;94203.00;;;;7403727;19;20696;-92
2023/06/21 02:40:54;;;;;;;8.40;5.85;;;17.20;1.00;18.50;94209.00;;;;7401764;19;20145;-92
2023/06/21 02:43:23;;;;;;;6.85;5.90;;;17.30;1.00;18.40;94190.00;;;;7403707;19;20133;-92
2023/06/21 02:46:00;;;;;;;6.65;5.97;;;17.40;1.00;18.40;94153.00;;;;7401869;19;20149;-92
2023/06/21 02:48:34;;;;;;;7.55;6.40;;;17.40;1.00;18.30;94184.00;;;;7403454;19;20136;-92
2023/06/21 02:51:02;;;;;;;7.30;5.70;;;17.40;1.00;18.30;94237.00;;;;7402873;19;20141;-93
2023/06/21 02:53:29;;;;;;;7.35;6.05;;;17.30;1.00;18.30;94223.00;;;;7403114;19;20153;-91
2023/06/21 02:56:03;;;;;;;6.72;5.90;;;17.40;1.00;18.30;94251.00;;;;7401015;19;20137;-91
2023/06/21 02:58:31;;;;;;;10.27;6.28;;;17.40;1.00;18.60;94260.00;;;;7400072;19;20144;-92
2023/06/21 03:01:04;;;;;;;8.73;6.10;;;17.50;1.00;18.80;94183.00;;;;7400675;19;20141;-92
2023/06/21 03:03:44;;;;;;;7.68;5.50;;;17.60;99.90;18.90;94240.00;;;;7399677;19;20172;-91
2023/06/21 03:06:17;;;;;;;8.82;5.85;;;17.70;99.90;18.80;94266.00;;;;7401460;19;20190;-92
2023/06/21 03:08:51;;;;;;;9.98;5.60;;;17.80;99.90;18.90;94224.00;;;;7410571;19;20145;-93
2023/06/21 03:11:18;;;;;;;7.05;5.43;;;17.90;99.90;19.00;94285.00;;;;7409667;19;20666;-92
2023/06/21 03:13:53;;;;;;;13.23;5.65;;;18.00;99.90;19.10;94268.00;;;;7410492;19;20141;-92
2023/06/21 03:16:28;;;;;;;7.20;5.53;;;18.00;99.90;19.20;94341.00;;;;7408875;19;20144;-92
2023/06/21 03:19:01;;;;;;;8.77;4.90;;;18.20;99.90;19.30;94404.00;;;;7409156;19;20358;-92
2023/06/21 03:21:35;;;;;;;11.55;6.05;;;18.30;99.90;18.20;94411.00;;;;7402989;19;20144;-90
2023/06/21 03:24:09;;;;;;;9.00;6.75;;;18.10;1.40;16.80;94384.00;;;;7403100;19;20145;-95
2023/06/21 03:26:37;;;;;;;9.52;6.70;;;17.40;99.90;16.40;94384.00;;;;7408837;19;20170;-94
2023/06/21 03:29:12;;;;;;;12.95;7.30;;;16.90;1.00;16.10;94326.00;;;;7414354;19;20656;-95
2023/06/21 03:31:47;;;;;;;9.55;5.80;;;;;15.90;94347.00;;;;7408594;19;20170;-93
2023/06/21 03:34:24;;;;;;;11.55;6.35;;;;;15.90;94362.00;;;;7415731;19;20141;-96
2023/06/21 03:37:00;;;;;;;14.63;7.68;;;;;15.90;94376.00;;;;7412055;19;20170;-96
2023/06/21 03:39:35;;;;;;;15.75;8.00;;;;;15.80;94381.00;;;;7412532;19;20136;-95
2023/06/21 03:42:10;;;;;;;11.93;7.13;;;;;15.70;94369.00;;;;7407846;19;20146;-93
2023/06/21 03:44:44;;;;;;;6.88;6.18;;;;;15.70;94342.00;;;;7408020;19;20140;-92
2023/06/21 03:47:19;;;;;;;9.30;6.07;;;;;15.70;94342.00;;;;7405971;19;20141;-92
2023/06/21 03:49:48;;;;;;;9.25;6.13;;;;;15.70;94320.00;;;;7405918;19;20188;-93
2023/06/21 03:52:25;;;;;;;9.55;6.28;;;;;15.60;94312.00;;;;7406388;19;20148;-93
2023/06/21 03:54:53;;;;;;;10.00;5.72;;;;;15.60;94314.00;;;;7406339;19;20129;-93
2023/06/21 03:57:28;;;;;;;7.80;4.72;;;;;15.60;94310.00;;;;7406213;19;20148;-93
2023/06/21 03:59:55;;;;;;;9.75;5.63;;;;;15.60;94308.00;;;;7403995;19;20141;-93
2023/06/21 04:02:31;;;;;;;9.23;5.88;;;;;15.70;94303.00;;;;7403911;19;20967;-93
2023/06/21 04:04:59;;;;;;;8.43;4.97;;;;;15.60;94298.00;;;;7404733;19;20136;-92
2023/06/21 04:07:40;;;;;;;4.90;4.40;;;;;15.60;94306.00;;;;7405949;19;20202;-92
2023/06/21 04:10:13;;;;;;;9.23;5.28;;;;;15.60;94307.00;;;;7405039;19;20588;-93
2023/06/21 04:12:47;;;;;;;7.95;5.50;;;;;15.70;94295.00;;;;7404780;19;20488;-92
2023/06/21 04:15:16;;;;;;;9.85;6.28;;;;;15.80;94320.00;;;;7405647;19;20665;-90
2023/06/21 04:17:50;;;;;;;7.95;5.82;;;;;15.80;94322.00;;;;7401152;19;20212;-87
2023/06/21 04:20:25;;;;;;;12.70;5.45;;;;;15.80;94320.00;;;;7401270;19;20489;-88
2023/06/21 04:22:59;;;;;;;7.53;5.35;;;;;15.80;94314.00;;;;7399113;19;20136;-88
2023/06/21 04:25:26;;;;;;;7.63;5.75;;;;;15.80;94290.00;;;;7399636;19;20149;-88
2023/06/21 04:28:01;;;;;;;9.80;5.72;;;;;15.80;94321.00;;;;7399338;19;20596;-86
2023/06/21 04:30:33;;;;;;;10.05;5.20;;;;;15.90;94318.00;;;;7400994;19;20641;-87
2023/06/21 04:33:07;;;;;;;7.13;4.82;;;;;15.90;94321.00;;;;7399950;19;20145;-86
2023/06/21 04:35:35;;;;;;;6.03;4.82;;;;;15.90;94323.00;;;;7399693;19;20617;-87
2023/06/21 04:38:10;;;;;;;7.90;5.13;;;;;15.90;94332.00;;;;7386333;19;20154;-87
2023/06/21 04:40:38;;;;;;;8.13;4.97;;;;;15.90;94340.00;;;;7387513;19;20167;-87
2023/06/21 04:43:12;;;;;;;10.30;4.20;;;;;15.90;94343.00;;;;7393298;19;20212;-88
2023/06/21 04:45:40;;;;;;;7.35;4.85;;;;;15.90;94336.00;;;;7393380;19;20140;-87
2023/06/21 04:48:24;;;;;;;6.53;4.72;;;;;15.90;94333.00;;;;7392671;19;20136;-88
2023/06/21 04:50:58;;;;;;;7.85;4.78;;;;;15.90;94332.00;;;;7393423;19;20155;-87
2023/06/21 04:53:33;;;;;;;11.63;5.38;;;;;15.80;94322.00;;;;7393496;19;20133;-87
2023/06/21 04:56:07;;;;;;;9.00;4.43;;;;;15.80;94338.00;;;;7392070;19;20180;-87
2023/06/21 04:58:42;;;;;;;8.15;4.68;;;;;15.90;94336.00;;;;7393425;19;20148;-88
2023/06/21 05:01:13;;;;;;;8.18;4.88;;;;;16.00;94331.00;;;;7391937;19;20273;-87
2023/06/21 05:03:48;;;;;;;7.28;4.55;;;;;15.90;94335.00;;;;7391590;19;20152;-88
2023/06/21 05:06:25;;;;;;;7.22;4.20;;;;;15.90;94326.00;;;;7391380;19;20695;-87
2023/06/21 05:08:58;;;;;;;6.60;4.50;;;;;15.90;94339.00;;;;7392411;19;20488;-87
2023/06/21 05:11:33;;;;;;;5.03;4.32;;;;;15.90;94335.00;;;;7391142;19;20155;-87
2023/06/21 05:14:07;;;;;;;4.57;3.53;;;;;15.90;94335.00;;;;7391614;19;20143;-85
2023/06/21 05:16:41;;;;;;;4.65;3.47;;;;;16.00;94339.00;;;;7391017;19;20647;-87
2023/06/21 05:19:11;;;;;;;6.25;4.05;;;;;16.00;94347.00;;;;7389616;19;20182;-87
2023/06/21 05:21:45;;;;;;;7.85;4.55;;;;;16.30;94345.00;;;;7389497;19;20172;-86
2023/06/21 05:24:19;;;;;;;7.00;4.25;;;;;16.40;94341.00;;;;7388232;19;20513;-86
2023/06/21 05:26:47;;;;;;;6.15;3.90;;;;;16.50;94315.00;;;;7390295;19;20136;-86
2023/06/21 05:29:21;;;;;;;5.72;4.47;;;;;16.70;94297.00;;;;7386231;19;20141;-87
2023/06/21 05:31:48;;;;;;;5.60;3.38;;;;;16.70;94303.00;;;;7390408;19;20156;-86
2023/06/21 05:34:22;;;;;;;5.68;3.38;;;;;16.60;94318.00;;;;7389141;19;20157;-86
2023/06/21 05:36:50;;;;;;;6.32;4.50;;;;;16.60;94324.00;;;;7391345;19;20137;-86
2023/06/21 05:39:25;;;;;;;5.20;4.40;;;;;16.70;94332.00;;;;7388328;19;20158;-86
2023/06/21 05:41:58;;;;;;;7.85;4.68;;;;;16.80;94343.00;;;;7389599;19;20154;-85
2023/06/21 05:44:26;;;;;;;6.00;4.32;;;;;16.80;94338.00;;;;7387631;19;20148;-86
2023/06/21 05:47:00;;;;;;;9.13;4.32;;;;;16.90;94342.00;;;;7387616;19;20176;-85
2023/06/21 05:49:29;;;;;;;8.65;4.10;;;;;17.10;94329.00;;;;7388531;19;20164;-86
2023/06/21 05:51:59;;;;;;;7.22;3.90;;;;;17.20;94327.00;;;;7390137;19;20160;-85
2023/06/21 05:54:33;;;;;;;6.22;3.75;;;;;17.40;94336.00;;;;7388651;19;20177;-85
2023/06/21 05:57:05;;;;;;;8.75;4.30;;;;;17.60;94345.00;;;;7387850;19;20602;-85
2023/06/21 05:59:43;;;;;;;5.80;4.15;;;;;17.70;94343.00;;;;7388801;19;20136;-86
2023/06/21 06:02:10;;;;;;;6.20;3.95;;;;;17.80;94344.00;;;;7390329;19;20184;-86
2023/06/21 06:04:45;;;;;;;6.88;4.22;;;;;17.90;94344.00;;;;7389609;19;20128;-87
2023/06/21 06:07:19;;;;;;;5.47;3.92;;;;;17.90;94354.00;;;;7388077;19;20568;-86
2023/06/21 06:09:53;;;;;;;5.68;4.40;;;;;17.90;94351.00;;;;7387672;19;20159;-87
2023/06/21 06:12:28;;;;;;;6.28;3.72;;;;;17.80;94353.00;;;;7390561;19;20140;-86
2023/06/21 06:15:03;;;;;;;5.45;3.38;;;;;17.80;94347.00;;;;7388564;19;20165;-86
2023/06/21 06:17:38;;;;;;;5.47;3.40;;;;;17.80;94351.00;;;;7390465;19;20692;-88
2023/06/21 06:20:13;;;;;;;4.43;3.63;;;;;17.90;94341.00;;;;7389325;19;20173;-88
2023/06/21 06:22:42;;;;;;;7.35;3.92;;;;;18.30;94341.00;;;;7388409;19;20163;-89
2023/06/21 06:25:17;;;;;;;4.35;3.90;;;;;18.70;94347.00;;;;7389118;19;20164;-89
2023/06/21 06:27:45;;;;;;;6.72;4.40;;;;;18.90;94349.00;;;;7390368;19;20159;-89
2023/06/21 06:30:20;;;;;;;6.80;3.92;;;;;19.00;94355.00;;;;7391277;19;20136;-90
2023/06/21 06:32:48;;;;;;;5.60;4.20;;;;;19.00;94364.00;;;;7391116;19;20204;-86
2023/06/21 06:35:16;;;;;;;4.43;3.90;;;;;18.80;94370.00;;;;7390214;19;20152;-88
2023/06/21 06:37:50;;;;;;;6.00;3.78;;;;;18.60;94366.00;;;;7392539;19;20133;-88
2023/06/21 06:40:25;;;;;;;5.55;3.70;;;;;18.70;94357.00;;;;7392217;19;20511;-87
2023/06/21 06:42:59;;;;;;;5.18;3.53;;;;;18.80;94360.00;;;;7395888;19;20166;-87
2023/06/21 06:45:33;;;;;;;4.20;3.33;;;;;19.10;94372.00;;;;7396618;19;20164;-88
2023/06/21 06:48:07;;;;;;;6.20;2.70;;;;;19.10;94375.00;;;;7398141;19;20137;-88
2023/06/21 06:50:42;;;;;;;4.40;3.13;;;;;19.20;94369.00;;;;7397884;19;20589;-88
2023/06/21 06:53:14;;;;;;;11.05;3.28;;;;;19.50;94363.00;;;;7396326;19;20148;-89
2023/06/21 06:55:59;;;;;;;7.13;2.95;;;;;19.60;94365.00;;;;7397243;19;20654;-89
2023/06/21 06:58:28;;;;;;;4.75;2.83;;;;;19.80;94359.00;;;;7397783;19;20152;-89
2023/06/21 07:01:18;;;;;;;3.72;2.90;;;;;20.30;94362.00;;;;7397108;19;20192;-90
2023/06/21 07:03:54;;;;;;;7.72;3.10;;;;;20.50;94359.00;;;;7398367;19;20164;-89
2023/06/21 07:06:35;;;;;;;4.82;3.10;;;;;20.90;94361.00;;;;7398227;19;20168;-92
2023/06/21 07:09:03;;;;;;;4.30;2.83;;;;;21.20;94358.00;;;;7399937;19;20519;-91
2023/06/21 07:11:37;;;;;;;2.90;2.40;;;;;21.10;94372.00;;;;7400529;19;20160;-92
2023/06/21 07:14:12;;;;;;;6.07;2.35;;;;;20.70;94384.00;;;;7400027;19;20141;-94
2023/06/21 07:16:50;;;;;;;5.60;2.90;;;;;20.30;94395.00;;;;7400897;19;20162;-93
2023/06/21 07:19:18;;;;;;;4.22;2.50;;;;;20.20;94390.00;;;;7401256;19;20148;-92
2023/06/21 07:21:54;;;;;;;4.65;2.20;;;;;19.70;94394.00;;;;7402765;19;20148;-92
2023/06/21 07:24:22;;;;;;;4.45;2.70;;;;;19.60;94394.00;;;;7405253;19;20614;-95
2023/06/21 07:26:59;;;;;;;2.40;2.20;;;;;19.90;94375.00;;;;7402584;19;20156;-93
2023/06/21 07:29:26;;;;;;;2.83;2.25;;;;;20.00;94373.00;;;;7395753;19;20161;-91
2023/06/21 07:32:01;;;;;;;4.93;2.63;;;;;19.50;94347.00;;;;7399941;19;20612;-91
2023/06/21 07:34:30;;;;;;;3.95;2.65;;;;;20.30;94350.00;;;;7401280;19;20204;-90
2023/06/21 07:37:04;;;;;;;2.80;2.47;;;;;20.70;94351.00;;;;7400517;19;20148;-91
2023/06/21 07:39:32;;;;;;;3.58;2.63;;;;;20.70;94349.00;;;;7399063;19;20273;-91
2023/06/21 07:42:22;;;;;;;4.03;2.70;;;;;20.40;94354.00;;;;7398220;19;20246;-91
2023/06/21 07:45:00;;;;;;;4.65;2.58;;;;;19.90;94366.00;;;;7397129;19;20163;-91
2023/06/21 07:47:35;;;;;;;4.28;2.83;;;;;20.60;94349.00;;;;7397593;19;20179;-91
2023/06/21 07:50:10;;;;;;;3.47;2.45;;;;;21.20;94373.00;;;;7398040;19;20591;-91
2023/06/21 07:52:50;;;;;;;6.72;2.67;;;;;21.30;94378.00;;;;7397587;19;20625;-93
2023/06/21 07:55:24;;;;;;;3.72;2.40;;;;;21.90;94387.00;;;;7399711;19;20148;-93
2023/06/21 07:57:52;;;;;;;5.35;2.63;;;;;21.80;94386.00;;;;7400270;19;20125;-92
2023/06/21 08:00:26;;;;;;;4.43;2.42;;;;;22.10;94395.00;;;;7397909;19;20180;-92
2023/06/21 08:02:54;;;;;;;4.50;2.38;;;;;22.10;94402.00;;;;7400787;19;20153;-92
2023/06/21 08:05:31;;;;;;;5.07;2.67;;;;;22.00;94417.00;;;;7398032;19;20624;-93
2023/06/21 08:08:08;;;;;;;3.65;2.50;;;;;21.80;94432.00;;;;7400302;19;20148;-92
2023/06/21 08:10:42;;;;;;;5.13;2.95;;;;;21.60;94445.00;;;;7400377;19;20152;-93
2023/06/21 08:13:11;;;;;;;4.07;2.80;;;;;21.00;94449.00;;;;7401780;19;20144;-92
2023/06/21 08:15:46;;;;;;;2.70;2.50;;;;;20.70;94459.00;;;;7401604;19;20162;-92
2023/06/21 08:18:20;;;;;;;4.13;2.58;;;;;20.40;94458.00;;;;7399954;19;20152;-92
2023/06/21 08:20:54;;;;;;;5.50;2.53;;;;;20.20;94467.00;;;;7396335;19;20157;-90
2023/06/21 08:23:28;;;;;;;5.78;3.00;;;;;20.20;94462.00;;;;7397291;19;20657;-89
2023/06/21 08:26:02;;;;;;;4.15;2.92;;;;;20.10;94468.00;;;;7396903;19;20147;-89
2023/06/21 08:28:31;;;;;;;6.95;3.30;;;;;20.00;94464.00;;;;7401276;19;20161;-95
2023/06/21 08:31:06;;;;;;;6.25;3.45;;;;;19.90;94458.00;;;;7404490;19;20148;-92
2023/06/21 08:33:34;;;;;;;5.10;3.15;;;;;19.90;94456.00;;;;7404308;19;20149;-95
2023/06/21 08:36:08;;;;;;;7.72;3.15;;;;;19.80;94458.00;;;;7402720;19;20215;-95
2023/06/21 08:38:37;;;;;;;6.43;3.20;;;;;19.70;94461.00;;;;7404418;19;20153;-92
2023/06/21 08:41:13;;;;;;;4.20;3.38;;;;;19.50;94453.00;;;;7404864;19;20144;-93
2023/06/21 08:43:48;;;;;;;3.85;3.20;;;;;19.40;94452.00;;;;7407656;19;20491;-94
2023/06/21 08:46:18;;;;;;;4.28;3.78;;;;;19.20;94454.00;;;;7401012;19;20166;-94
2023/06/21 08:49:00;;;;;;;6.53;3.72;;;;;19.00;94444.00;;;;7400782;19;20156;-94
2023/06/21 08:51:28;;;;;;;5.65;3.53;;;;;18.80;94457.00;;;;7398613;19;20152;-94
2023/06/21 08:54:08;;;;;;;4.88;4.13;;;;;18.70;94446.00;;;;7403434;19;20212;-95
2023/06/21 08:57:03;;;;;;;4.95;3.80;;;;;18.50;94441.00;;;;7402267;19;20148;-96
2023/06/21 08:59:41;;;;;;;5.97;4.18;;;;;18.40;94428.00;;;;7403077;19;20524;-95
2023/06/21 09:02:35;;;;;;;4.30;3.90;;;;;18.40;94412.00;;;;7399616;19;20187;-95
2023/06/21 09:05:35;;;;;;;5.13;4.30;;;;;18.30;94396.00;;;;7400460;19;20153;-95
2023/06/21 09:08:11;;;;;;;5.18;4.68;;;;;18.20;94387.00;;;;7401922;19;20629;-95
2023/06/21 09:10:40;;;;;;;5.63;4.45;;;;;18.10;94392.00;;;;7401899;19;20148;-94
2023/06/21 09:13:14;;;;;;;5.68;4.53;;;;;18.10;94403.00;;;;7401285;19;20148;-95
2023/06/21 09:15:47;;;;;;;5.70;4.47;;;;;18.00;94391.00;;;;7402833;19;20268;-95
2023/06/21 09:18:23;;;;;;;7.05;5.05;;;;;18.10;94378.00;;;;7401273;19;20198;-94
2023/06/21 09:20:52;;;;;;;7.60;5.15;;;;;18.00;94391.00;;;;7398923;19;20145;-94
2023/06/21 09:23:27;;;;;;;7.32;4.57;;;;;17.90;94395.00;;;;7402149;19;20628;-93
2023/06/21 09:26:02;;;;;;;7.57;5.38;;;;;18.00;94393.00;;;;7399866;19;20667;-94
2023/06/21 09:28:32;;;;;;;7.78;5.47;;;;;17.90;94393.00;;;;7400574;19;20492;-94
2023/06/21 09:31:06;;;;;;;6.85;5.07;;;;;18.00;94386.00;;;;7400201;19;20152;-95
2023/06/21 09:33:36;;;;;;;7.47;6.30;;;;;18.00;94405.00;;;;7398636;19;21011;-92
2023/06/21 09:36:12;;;;;;;16.85;6.32;;;;;18.10;94429.00;;;;7398864;19;20149;-93
2023/06/21 09:38:43;;;;;;;7.93;5.43;;;;;18.00;94446.00;;;;7397588;19;20216;-94
2023/06/21 09:41:19;;;;;;;9.88;6.43;;;;;17.80;94453.00;;;;7400619;19;20206;-93
2023/06/21 09:43:54;;;;;;;12.68;6.35;;;;;17.80;94464.00;;;;7399546;19;20135;-96
2023/06/21 09:46:28;;;;;;;7.32;6.15;;;;;17.80;94477.00;;;;7399053;19;20572;-95
2023/06/21 09:49:07;;;;;;;8.93;6.47;;;;;17.90;94487.00;;;;7396320;19;20167;-94
2023/06/21 09:51:44;;;;;;;11.35;6.68;;;;;17.90;94491.00;;;;7397843;19;20153;-95
2023/06/21 09:54:12;;;;;;;7.95;5.70;;;;;18.00;94507.00;;;;7396776;19;20157;-96
2023/06/21 09:56:46;;;;;;;7.97;6.43;;;;;17.90;94498.00;;;;7399662;19;20181;-96
2023/06/21 09:59:21;;;;;;;9.25;5.90;;;;;17.90;94494.00;;;;7399965;19;20173;-95
2023/06/21 10:01:55;;;;;;;7.60;6.10;;;;;18.10;94490.00;;;;7401435;19;20152;-96
2023/06/21 10:04:24;;;;;;;6.38;5.75;;;;;18.20;94477.00;;;;7398991;19;20157;-96
2023/06/21 10:07:14;;;;;;;8.45;6.05;;;;;18.50;94490.00;;;;7398689;19;20205;-93
2023/06/21 10:09:49;;;;;;;8.32;6.60;;;;;18.50;94500.00;;;;7403130;19;20147;-96
2023/06/21 10:12:23;;;;;;;10.63;6.90;;;;;18.60;94502.00;;;;7402946;19;20152;-96
2023/06/21 10:14:51;;;;;;;7.00;6.20;;;;;18.70;94503.00;;;;7401768;19;20156;-96
2023/06/21 10:17:29;;;;;;;7.55;6.10;;;;;18.90;94508.00;;;;7416141;19;20144;-96
2023/06/21 10:19:59;;;;;;;11.45;6.93;;;;;19.00;94510.00;;;;7413813;19;20145;-96
2023/06/21 10:22:36;;;;;;;8.35;5.85;;;;;19.00;94507.00;;;;7414501;19;20144;-95
2023/06/21 10:25:11;;;;;;;8.55;6.30;;;;;19.10;94504.00;;;;7414334;19;20148;-95
2023/06/21 10:27:43;;;;;;;8.15;6.65;;;;;19.20;94503.00;;;;7413092;19;20152;-96
2023/06/21 10:30:22;;;;;;;8.98;6.57;;;;;19.30;94496.00;;;;7414376;19;20139;-93
2023/06/21 10:32:58;;;;;;;7.95;6.60;;;;;19.20;94503.00;;;;7416505;19;20155;-96
2023/06/21 10:35:37;;;;;;;7.20;5.70;;;;;19.40;94489.00;;;;7418311;19;20145;-95
2023/06/21 10:38:21;;;;;;;8.30;6.43;;;;;19.30;94493.00;;;;7417376;19;20282;-96
2023/06/21 10:40:55;;;;;;;9.27;5.38;;;;;19.20;94480.00;;;;7415970;19;20156;-96
2023/06/21 10:43:33;;;;;;;7.85;5.00;;;;;19.90;94477.00;;;;7417015;19;20600;-95
2023/06/21 10:46:03;;;;;;;7.70;4.45;;;;;20.30;94472.00;;;;7418015;19;20157;-92
2023/06/21 10:48:39;;;;;;;7.28;5.30;;;;;20.60;94467.00;;;;7414564;19;20233;-95
2023/06/21 10:51:10;;;;;;;7.03;4.55;;;;;20.90;94471.00;;;;7414334;19;20181;-95
2023/06/21 10:53:53;;;;;;;6.88;4.30;;;;;20.90;94476.00;;;;7416386;19;20133;-96
2023/06/21 10:56:23;;;;;;;4.65;3.40;;;;;20.50;94457.00;;;;7416608;19;20151;-96
2023/06/21 10:59:00;;;;;;;6.78;4.13;;;;;22.10;94451.00;;;;7418286;19;20136;-96
2023/06/21 11:01:43;;;;;;;6.22;3.95;;;;;22.00;94465.00;;;;7417329;19;20153;-96
2023/06/21 11:04:20;;;;;;;7.78;4.05;;;;;22.50;94462.00;;;;7419770;19;20205;-96
2023/06/21 11:06:59;;;;;;;4.70;3.85;;;;;22.80;94427.00;;;;7418020;19;20178;-96
2023/06/21 11:09:34;;;;;;;5.38;4.05;;;;;23.80;94458.00;;;;7418101;19;20185;-94
2023/06/21 11:12:08;;;;;;;9.35;3.72;;;;;23.60;94459.00;;;;7410512;19;20136;-92
2023/06/21 11:14:42;;;;;;;4.10;3.70;;;;;23.10;94452.00;;;;7407078;19;20161;-91
2023/06/21 11:17:16;;;;;;;5.13;3.90;;;;;23.80;94444.00;;;;7406608;19;20155;-91
2023/06/21 11:19:44;;;;;;;8.57;4.55;;;;;23.70;94443.00;;;;7405540;19;20221;-90
2023/06/21 11:22:22;;;;;;;5.03;3.72;;;;;22.40;94447.00;;;;7405350;19;20182;-88
2023/06/21 11:25:00;;;;;;;5.55;3.75;;;;;23.80;94447.00;;;;7403363;19;20136;-90
2023/06/21 11:27:28;;;;;;;6.38;3.90;;;;;23.70;94443.00;;;;7397841;19;20163;-91
2023/06/21 11:30:09;;;;;;;5.95;4.00;;;;;23.70;94443.00;;;;7397767;19;20144;-91
2023/06/21 11:32:56;;;;;;;6.38;4.10;;;;;23.80;94444.00;;;;7396012;19;20152;-93
2023/06/21 11:35:46;;;;;;;4.60;4.03;;;;;24.50;94437.00;;;;7400521;19;20141;-92
2023/06/21 11:38:20;;;;;;;4.65;4.13;;;;;25.20;94423.00;;;;7402400;19;20174;-93
2023/06/21 11:40:50;;;;;;;6.15;4.25;;;;;26.00;94424.00;;;;7402955;19;20149;-94
2023/06/21 11:43:32;;;;;;;6.18;3.88;;;;;25.00;94471.00;;;;7400969;19;20182;-94
2023/06/21 11:46:33;;;;;;;7.22;4.05;;;;;25.00;94435.00;;;;7415400;19;20227;-91
2023/06/21 11:49:07;;;;;;;5.90;3.70;;;;;25.50;94472.00;;;;7401519;19;20178;-93
2023/06/21 11:52:01;;;;;;;4.00;3.65;;;;;24.80;94432.00;;;;7400619;19;20144;-94
2023/06/21 11:54:37;;;;;;;6.68;4.25;;;;;25.80;94434.00;;;;7406933;19;20156;-94
2023/06/21 11:57:11;;;;;;;4.05;3.65;;;;;26.80;94429.00;;;;7419629;19;20156;-94
2023/06/21 11:59:40;;;;;;;5.35;3.90;;;;;26.70;94424.00;;;;7402029;19;20580;-93
2023/06/21 12:02:20;;;;;;;5.28;4.03;;;;;26.50;94420.00;;;;7400102;19;20184;-93
2023/06/21 12:04:50;;;;;;;7.25;3.38;;;;;27.20;94419.00;;;;7401874;19;20149;-92
2023/06/21 12:07:39;;;;;;;4.97;3.70;;;;;26.80;94477.00;;;;7400140;19;20199;-91
2023/06/21 12:10:11;;;;;;;4.57;3.75;;;;;26.00;94457.00;;;;7398017;19;20152;-90
2023/06/21 12:12:46;;;;;;;9.63;3.80;;;;;26.90;94458.00;;;;7398744;19;20580;-91
2023/06/21 12:15:14;;;;;;;4.30;3.63;;;;;27.40;94420.00;;;;7396375;19;20129;-90
2023/06/21 12:17:52;;;;;;;4.60;3.67;;;;;27.60;94437.00;;;;7395841;19;20557;-88
2023/06/21 12:20:22;;;;;;;5.63;3.90;;;;;28.40;94427.00;;;;7394406;19;20156;-89
2023/06/21 12:23:02;;;;;;;6.05;4.07;;;;;29.90;94438.00;;;;7394453;19;20152;-89
2023/06/21 12:25:43;;;;;;;5.00;4.10;;;;;30.10;94434.00;;;;7397891;19;20193;-89
2023/06/21 12:28:22;;;;;;;5.45;3.72;;;;;30.60;94446.00;;;;7399195;19;20651;-91
2023/06/21 12:31:05;;;;;;;7.00;3.65;;;;;30.30;94448.00;;;;7410017;19;20500;-93
2023/06/21 12:33:40;;;;;;;3.80;3.20;;;;;30.30;94447.00;;;;7399837;19;20159;-90
2023/06/21 12:36:25;;;;;;;4.63;3.33;;;;;31.60;94443.00;;;;7398166;19;20308;-91
2023/06/21 12:39:07;;;;;;;5.93;3.83;;;;;30.40;94442.00;;;;7399731;19;20156;-90